KDNN

Dalton Municipal Airport

Dalton, Georgia, USA
METAR KDNN 191655Z AUTO 17005KT 10SM SCT025 SCT040 BKN060 28/22 A3001 RMK AO2
Observed Flight Rules
Aug-19 @ 16:55 UTC (17 minutes ago) Visual Flight Rules
Wind Visibility Clouds
170° at 5 knots 10 miles
  • Scattered at 2,500' AGL
  • Scattered at 4,000' AGL
  • Broken at 6,000' AGL
Temperatures Readings
Current 28°C / 82°F
Dewpoint 22°C / 72°F
Humidity 70%
Altimeter 30.01" Hg
Pressure 1016 hPa
Elevation 216
METAR KDNN 191655Z AUTO 17005KT 10SM SCT025 SCT040 BKN060 28/22 A3001 RMK AO2
Observed Flight Rules
Aug-19 @ 16:55 UTC
(17 minutes ago)
VFR
Wind Visibility
170° at 5 knots 10 miles
Clouds
  • Scattered at 2,500' AGL
  • Scattered at 4,000' AGL
  • Broken at 6,000' AGL
Temperature Dewpoint
28°C / 82°F 22°C / 72°F
Humidity Altimeter Pressure
70% 30.01" Hg 1016 hPa